Time;durP1;ratioP1;P1;durP2;ratioP2;P2;SDS_P1;SDS_P2;PMS_P1;PMS_P2;Temp;Humidity;BMP_temperature;BMP_pressure;BME280_temperature;BME280_humidity;BME280_pressure;Samples;Min_cycle;Max_cycle;Signal;HPM_P1;HPM_P2
2022/01/16 00:00:22;;;;;;;;;69.50;56.25;;;;;-142.59;100.00;56100.38;4914798;28;49995;-67
2022/01/16 00:05:20;;;;;;;;;69.25;54.75;;;;;-142.59;100.00;56100.38;4914473;28;50065;-69
2022/01/16 00:07:46;;;;;;;;;70.25;50.50;;;;;-142.59;100.00;56100.38;4914456;28;49900;-69
2022/01/16 00:10:11;;;;;;;;;74.25;56.00;;;;;-142.59;100.00;56100.38;4914826;28;49932;-66
2022/01/16 00:12:37;;;;;;;;;69.50;54.00;;;;;-142.59;100.00;56100.38;4896775;28;52494;-67
2022/01/16 00:15:04;;;;;;;;;71.75;53.00;;;;;-142.59;100.00;56100.38;4897167;28;49797;-66
2022/01/16 00:17:34;;;;;;;;;75.25;53.00;;;;;-142.59;100.00;56100.38;4914291;28;49646;-70
2022/01/16 00:20:00;;;;;;;;;69.75;55.50;;;;;-142.59;100.00;56100.38;4914523;28;49723;-67
2022/01/16 00:22:29;;;;;;;;;73.00;53.67;;;;;-142.59;100.00;56100.38;4890912;28;50476;-69
2022/01/16 00:24:55;;;;;;;;;62.75;51.00;;;;;-142.59;100.00;56100.38;4914166;28;49819;-66
2022/01/16 00:27:20;;;;;;;;;67.25;51.00;;;;;-142.59;100.00;56100.38;4913337;28;49820;-66
2022/01/16 00:29:45;;;;;;;;;67.75;54.00;;;;;-142.59;100.00;56100.38;4914221;28;49589;-67
2022/01/16 00:32:11;;;;;;;;;76.00;55.50;;;;;-142.59;100.00;56100.38;4913885;28;50110;-66
2022/01/16 00:34:36;;;;;;;;;71.00;55.75;;;;;-142.59;100.00;56100.38;4914145;28;49622;-66
2022/01/16 00:37:02;;;;;;;;;66.50;55.00;;;;;-142.59;100.00;56100.38;4896768;28;49818;-66
2022/01/16 00:39:28;;;;;;;;;70.00;54.00;;;;;-142.59;100.00;56100.38;4897077;28;50147;-66
2022/01/16 00:41:54;;;;;;;;;65.50;53.75;;;;;-142.59;100.00;56100.38;4913843;28;49999;-65
2022/01/16 00:44:21;;;;;;;;;67.25;53.00;;;;;-142.59;100.00;56100.38;4896149;28;49838;-71
2022/01/16 00:46:46;;;;;;;;;73.25;53.50;;;;;-142.59;100.00;56100.38;4913837;28;49726;-68
2022/01/16 00:49:11;;;;;;;;;77.25;57.00;;;;;-142.59;100.00;56100.38;4914003;28;49845;-71
2022/01/16 00:51:37;;;;;;;;;67.00;51.75;;;;;-142.59;100.00;56100.38;4913917;28;51202;-70
2022/01/16 00:54:02;;;;;;;;;73.25;55.50;;;;;-142.59;100.00;56100.38;4913918;28;49900;-69
2022/01/16 00:56:27;;;;;;;;;73.50;57.00;;;;;-142.59;100.00;56100.38;4913503;28;49900;-66
2022/01/16 00:58:53;;;;;;;;;80.00;63.00;;;;;-142.59;100.00;56100.38;4913336;28;49932;-71
2022/01/16 01:01:19;;;;;;;;;70.75;52.75;;;;;-142.59;100.00;56100.38;4913422;28;50792;-67
2022/01/16 01:03:44;;;;;;;;;72.50;56.75;;;;;-142.59;100.00;56100.38;4913768;28;49736;-67
2022/01/16 01:06:10;;;;;;;;;76.00;57.75;;;;;-142.59;100.00;56100.38;4913557;28;49650;-67
2022/01/16 01:08:35;;;;;;;;;69.75;55.00;;;;;-142.59;100.00;56100.38;4913983;28;49762;-68
2022/01/16 01:11:05;;;;;;;;;70.00;55.67;;;;;-142.59;100.00;56100.38;4913477;28;50394;-66
2022/01/16 01:13:54;;;;;;;;;73.67;59.67;;;;;-142.59;100.00;56100.38;4913236;28;49696;-68
2022/01/16 01:16:19;;;;;;;;;72.75;57.75;;;;;-142.59;100.00;56100.38;4912777;28;49852;-68
2022/01/16 01:18:48;;;;;;;;;70.33;55.00;;;;;-142.59;100.00;56100.38;4913891;28;49977;-71
2022/01/16 01:21:26;;;;;;;;;71.67;55.67;;;;;-142.59;100.00;56100.38;4913489;28;49873;-68
2022/01/16 01:23:52;;;;;;;;;73.33;59.33;;;;;-142.59;100.00;56100.38;4913366;28;49950;-67
2022/01/16 01:26:17;;;;;;;;;80.33;58.33;;;;;-142.59;100.00;56100.38;4913437;28;50559;-67
2022/01/16 01:28:43;;;;;;;;;70.50;56.00;;;;;-142.59;100.00;56100.38;4913401;28;49923;-67
2022/01/16 01:31:11;;;;;;;;;71.75;52.75;;;;;-142.59;100.00;56100.38;4913317;28;49839;-70
2022/01/16 01:33:36;;;;;;;;;65.50;50.25;;;;;-142.59;100.00;56100.38;4913203;28;50000;-67
2022/01/16 01:36:02;;;;;;;;;76.50;57.25;;;;;-142.59;100.00;56100.38;4913296;28;50414;-76
2022/01/16 01:38:27;;;;;;;;;64.25;52.00;;;;;-142.59;100.00;56100.38;4912128;28;49803;-73
2022/01/16 01:40:52;;;;;;;;;73.75;58.25;;;;;-142.59;100.00;56100.38;4913093;28;49782;-67
2022/01/16 01:51:22;;;;;;;;;76.67;57.33;;;;;-142.59;100.00;56100.38;4912908;28;49772;-72
2022/01/16 01:53:50;;;;;;;;;64.00;50.67;;;;;-142.59;100.00;56100.38;4913016;28;49721;-74
2022/01/16 01:56:22;;;;;;;;;75.25;57.75;;;;;-142.59;100.00;56100.38;4913249;28;50020;-72
2022/01/16 01:58:49;;;;;;;;;71.00;56.00;;;;;-142.59;100.00;56100.38;4912720;28;49580;-77
2022/01/16 02:01:14;;;;;;;;;65.00;53.50;;;;;-142.59;100.00;56100.38;4912677;28;50804;-66
2022/01/16 02:06:05;;;;;;;;;73.00;57.33;;;;;-142.59;100.00;56100.38;4912910;28;49870;-67
2022/01/16 02:08:31;;;;;;;;;67.00;52.25;;;;;-142.59;100.00;56100.38;4913079;28;49740;-66
2022/01/16 02:10:59;;;;;;;;;73.00;55.33;;;;;-142.59;100.00;56100.38;4912672;28;49726;-66
2022/01/16 02:13:30;;;;;;;;;65.25;51.75;;;;;-142.59;100.00;56100.38;4889004;28;49752;-66
2022/01/16 02:31:59;;;;;;;;;68.75;53.00;;;;;-142.59;100.00;56100.38;4912297;28;50007;-66
2022/01/16 02:34:35;;;;;;;;;75.50;53.25;;;;;-142.59;100.00;56100.38;4912672;28;49671;-65
2022/01/16 02:37:05;;;;;;;;;77.75;57.00;;;;;-142.59;100.00;56100.38;4912405;28;49796;-66
2022/01/16 02:39:34;;;;;;;;;69.00;54.25;;;;;-142.59;100.00;56100.38;4912739;28;49811;-68
2022/01/16 02:42:00;;;;;;;;;79.50;55.50;;;;;-142.59;100.00;56100.38;4912125;28;51012;-67
2022/01/16 02:46:55;;;;;;;;;67.50;55.25;;;;;-142.59;100.00;56100.38;4912318;28;49642;-67
2022/01/16 02:49:30;;;;;;;;;75.75;56.25;;;;;-142.59;100.00;56100.38;4913297;28;49658;-66
2022/01/16 02:51:58;;;;;;;;;75.75;55.75;;;;;-142.59;100.00;56100.38;4915369;28;49767;-66
2022/01/16 02:54:24;;;;;;;;;63.75;49.25;;;;;-142.59;100.00;56100.38;4915866;28;49797;-66
2022/01/16 02:56:49;;;;;;;;;67.25;53.50;;;;;-142.59;100.00;56100.38;4915851;28;50030;-67
2022/01/16 02:59:15;;;;;;;;;68.75;53.75;;;;;-142.59;100.00;56100.38;4897932;28;49731;-65
2022/01/16 03:01:41;;;;;;;;;65.50;53.75;;;;;-142.59;100.00;56100.38;4897768;28;52351;-67
2022/01/16 03:04:07;;;;;;;;;66.00;54.75;;;;;-142.59;100.00;56100.38;4915431;28;49967;-65
2022/01/16 03:06:33;;;;;;;;;69.75;54.25;;;;;-142.59;100.00;56100.38;4915491;28;49709;-66
2022/01/16 03:08:59;;;;;;;;;69.50;54.25;;;;;-142.59;100.00;56100.38;4915810;28;49621;-66
2022/01/16 03:13:50;;;;;;;;;51.25;45.00;;;;;-142.59;100.00;56100.38;4915078;28;49749;-67
2022/01/16 03:16:21;;;;;;;;;65.75;55.00;;;;;-142.59;100.00;56100.38;4915260;28;49650;-67
2022/01/16 03:21:54;;;;;;;;;69.00;53.00;;;;;-142.59;100.00;56100.38;4915008;28;50186;-66
2022/01/16 03:24:24;;;;;;;;;64.50;52.75;;;;;-142.59;100.00;56100.38;4915321;28;49918;-66
2022/01/16 03:26:50;;;;;;;;;72.25;54.50;;;;;-142.59;100.00;56100.38;4897908;28;49629;-67
2022/01/16 03:29:15;;;;;;;;;67.25;51.50;;;;;-142.59;100.00;56100.38;4915145;28;49714;-68
2022/01/16 03:31:41;;;;;;;;;57.50;47.25;;;;;-142.59;100.00;56100.38;4914883;28;50708;-68
2022/01/16 03:34:06;;;;;;;;;73.25;57.25;;;;;-142.59;100.00;56100.38;4915177;28;49610;-69
2022/01/16 03:36:31;;;;;;;;;71.50;54.50;;;;;-142.59;100.00;56100.38;4915125;28;49772;-69
2022/01/16 03:38:57;;;;;;;;;71.25;54.75;;;;;-142.59;100.00;56100.38;4914901;28;49728;-68
2022/01/16 03:41:26;;;;;;;;;78.00;55.00;;;;;-142.59;100.00;56100.38;4914812;28;50431;-68
2022/01/16 03:43:53;;;;;;;;;71.75;57.50;;;;;-142.59;100.00;56100.38;4914628;28;49700;-68
2022/01/16 03:46:18;;;;;;;;;65.75;52.50;;;;;-142.59;100.00;56100.38;4915135;28;49799;-66
2022/01/16 03:48:43;;;;;;;;;70.25;53.75;;;;;-142.59;100.00;56100.38;4915055;28;49798;-69
2022/01/16 03:51:09;;;;;;;;;68.75;53.25;;;;;-142.59;100.00;56100.38;4914609;28;50664;-68
2022/01/16 03:53:34;;;;;;;;;73.25;57.50;;;;;-142.59;100.00;56100.38;4914781;28;49745;-75
2022/01/16 03:55:59;;;;;;;;;76.25;56.75;;;;;-142.59;100.00;56100.38;4914774;28;49742;-70
2022/01/16 03:58:25;;;;;;;;;77.50;57.00;;;;;-142.59;100.00;56100.38;4897290;28;49795;-68
2022/01/16 04:00:50;;;;;;;;;69.75;49.75;;;;;-142.59;100.00;56100.38;4913191;28;52027;-66
2022/01/16 04:03:15;;;;;;;;;74.00;58.25;;;;;-142.59;100.00;56100.38;4914278;28;49846;-74
2022/01/16 04:05:41;;;;;;;;;74.00;59.00;;;;;-142.59;100.00;56100.38;4914670;28;50165;-72
2022/01/16 04:08:06;;;;;;;;;72.00;57.50;;;;;-142.59;100.00;56100.38;4914760;28;50093;-73
2022/01/16 04:10:32;;;;;;;;;76.75;56.75;;;;;-142.59;100.00;56100.38;4914391;28;50957;-72
2022/01/16 04:12:57;;;;;;;;;71.75;56.50;;;;;-142.59;100.00;56100.38;4914283;28;49580;-75
2022/01/16 04:15:31;;;;;;;;;67.75;53.25;;;;;-142.59;100.00;56100.38;4914549;28;49559;-70
2022/01/16 04:17:58;;;;;;;;;72.00;55.50;;;;;-142.59;100.00;56100.38;4914639;28;49678;-68
2022/01/16 04:20:23;;;;;;;;;73.75;56.00;;;;;-142.59;100.00;56100.38;4914371;28;49861;-66
2022/01/16 04:22:48;;;;;;;;;72.25;54.50;;;;;-142.59;100.00;56100.38;4896847;28;49915;-73
2022/01/16 04:25:14;;;;;;;;;70.75;57.75;;;;;-142.59;100.00;56100.38;4897108;28;49899;-65
2022/01/16 04:27:40;;;;;;;;;62.75;48.25;;;;;-142.59;100.00;56100.38;4914506;28;50005;-70
2022/01/16 04:30:06;;;;;;;;;73.50;52.25;;;;;-142.59;100.00;56100.38;4914318;28;50972;-68
2022/01/16 04:32:32;;;;;;;;;70.25;54.50;;;;;-142.59;100.00;56100.38;4914340;28;49745;-74
2022/01/16 04:34:57;;;;;;;;;71.25;54.00;;;;;-142.59;100.00;56100.38;4914235;28;49849;-75
2022/01/16 04:37:22;;;;;;;;;75.75;56.75;;;;;-142.59;100.00;56100.38;4914079;28;50056;-68
2022/01/16 04:39:58;;;;;;;;;68.00;53.75;;;;;-142.59;100.00;56100.38;4896751;28;50325;-67
2022/01/16 04:45:08;;;;;;;;;64.00;50.00;;;;;-142.59;100.00;56100.38;4914160;28;50018;-66
2022/01/16 04:47:33;;;;;;;;;79.50;55.25;;;;;-142.59;100.00;56100.38;4897091;28;50037;-67
2022/01/16 04:49:58;;;;;;;;;74.75;52.00;;;;;-142.59;100.00;56100.38;4913621;28;51222;-65
2022/01/16 04:52:24;;;;;;;;;64.50;50.50;;;;;-142.59;100.00;56100.38;4913822;28;49849;-65
2022/01/16 04:54:49;;;;;;;;;68.50;53.75;;;;;-142.59;100.00;56100.38;4914106;28;49970;-66
2022/01/16 04:57:16;;;;;;;;;66.00;52.00;;;;;-142.59;100.00;56100.38;4913787;28;49913;-65
2022/01/16 04:59:42;;;;;;;;;57.75;44.25;;;;;-142.59;100.00;56100.38;4913588;28;50703;-65
2022/01/16 05:02:07;;;;;;;;;78.75;55.75;;;;;-142.59;100.00;56100.38;4913436;28;49547;-65
2022/01/16 05:04:32;;;;;;;;;74.25;55.75;;;;;-142.59;100.00;56100.38;4913741;28;49563;-65
2022/01/16 05:06:58;;;;;;;;;72.50;50.75;;;;;-142.59;100.00;56100.38;4913930;28;49683;-66
2022/01/16 05:09:23;;;;;;;;;55.00;45.75;;;;;-142.59;100.00;56100.38;4913523;28;50414;-65
2022/01/16 05:11:55;;;;;;;;;68.25;49.25;;;;;-142.59;100.00;56100.38;4913381;28;49681;-67
2022/01/16 05:17:04;;;;;;;;;55.00;46.75;;;;;-142.59;100.00;56100.38;4913659;28;49706;-66
2022/01/16 05:19:29;;;;;;;;;62.25;47.00;;;;;-142.59;100.00;56100.38;4896298;28;50403;-65
2022/01/16 05:21:55;;;;;;;;;53.50;41.50;;;;;-142.59;100.00;56100.38;4913558;28;49897;-66
2022/01/16 05:24:21;;;;;;;;;48.75;40.25;;;;;-142.59;100.00;56100.38;4913603;28;50356;-65
2022/01/16 05:26:47;;;;;;;;;53.00;42.75;;;;;-142.59;100.00;56100.38;4913600;28;49678;-66
2022/01/16 05:29:13;;;;;;;;;51.00;41.00;;;;;-142.59;100.00;56100.38;4912928;28;50499;-66
2022/01/16 05:31:44;;;;;;;;;51.25;41.75;;;;;-142.59;100.00;56100.38;4896083;28;49734;-65
2022/01/16 05:34:11;;;;;;;;;50.25;43.25;;;;;-142.59;100.00;56100.38;4913430;28;49780;-65
2022/01/16 05:36:36;;;;;;;;;55.50;42.00;;;;;-142.59;100.00;56100.38;4913549;28;49792;-66
2022/01/16 05:39:02;;;;;;;;;51.00;42.25;;;;;-142.59;100.00;56100.38;4913097;28;51434;-65
2022/01/16 05:41:27;;;;;;;;;51.25;38.75;;;;;-142.59;100.00;56100.38;4913333;28;50020;-65
2022/01/16 05:43:53;;;;;;;;;53.50;43.25;;;;;-142.59;100.00;56100.38;4912920;28;49912;-65
2022/01/16 05:46:18;;;;;;;;;61.75;44.75;;;;;-142.59;100.00;56100.38;4913284;28;49558;-65
2022/01/16 05:48:44;;;;;;;;;42.50;38.75;;;;;-142.59;100.00;56100.38;4912748;28;50473;-66
2022/01/16 05:51:09;;;;;;;;;56.75;42.75;;;;;-142.59;100.00;56100.38;4913007;28;50020;-66
2022/01/16 05:53:36;;;;;;;;;54.00;44.50;;;;;-142.59;100.00;56100.38;4913070;28;50242;-65
2022/01/16 05:56:01;;;;;;;;;55.50;43.50;;;;;-142.59;100.00;56100.38;4913179;28;49666;-66
2022/01/16 05:58:26;;;;;;;;;45.50;40.50;;;;;-142.59;100.00;56100.38;4895123;28;49723;-65
2022/01/16 06:00:52;;;;;;;;;36.25;34.00;;;;;-142.59;100.00;56100.38;4912903;28;49676;-65
2022/01/16 06:03:19;;;;;;;;;37.00;29.75;;;;;-142.59;100.00;56100.38;4912902;28;49959;-65
2022/01/16 06:05:44;;;;;;;;;42.50;38.75;;;;;-142.59;100.00;56100.38;4913155;28;49961;-67
2022/01/16 06:08:12;;;;;;;;;37.75;34.25;;;;;-142.59;100.00;56100.38;4912688;28;51076;-66
2022/01/16 06:10:38;;;;;;;;;45.50;41.25;;;;;-142.59;100.00;56100.38;4912838;28;49836;-71
2022/01/16 06:13:06;;;;;;;;;44.25;34.50;;;;;-142.59;100.00;56100.38;4912439;28;49825;-66
2022/01/16 06:15:33;;;;;;;;;50.75;43.25;;;;;-142.59;100.00;56100.38;4912978;28;49749;-70
2022/01/16 06:18:00;;;;;;;;;51.50;39.50;;;;;-142.59;100.00;56100.38;4912533;28;49847;-68
2022/01/16 06:20:25;;;;;;;;;39.75;36.75;;;;;-142.59;100.00;56100.38;4895563;28;49877;-67
2022/01/16 06:22:53;;;;;;;;;46.75;37.25;;;;;-142.59;100.00;56100.38;4912723;28;49843;-71
2022/01/16 06:25:19;;;;;;;;;47.25;34.75;;;;;-142.59;100.00;56100.38;4914734;28;49548;-72
2022/01/16 06:27:44;;;;;;;;;40.25;38.25;;;;;-142.59;100.00;56100.38;4915591;28;50732;-72
2022/01/16 06:30:10;;;;;;;;;40.25;33.00;;;;;-142.59;100.00;56100.38;4898731;28;49683;-67
2022/01/16 06:32:37;;;;;;;;;48.25;35.00;;;;;-142.59;100.00;56100.38;4916157;28;49670;-67
2022/01/16 06:35:04;;;;;;;;;25.75;24.50;;;;;-142.59;100.00;56100.38;4916255;28;49777;-67
2022/01/16 06:37:29;;;;;;;;;41.00;35.75;;;;;-142.59;100.00;56100.38;4898432;28;51894;-71
2022/01/16 06:39:55;;;;;;;;;38.25;31.25;;;;;-142.59;100.00;56100.38;4915826;28;49676;-70
2022/01/16 06:42:20;;;;;;;;;47.00;37.25;;;;;-142.59;100.00;56100.38;4915837;28;49694;-67
2022/01/16 06:44:46;;;;;;;;;41.25;37.00;;;;;-142.59;100.00;56100.38;4916285;28;50094;-67
2022/01/16 06:47:11;;;;;;;;;39.75;29.75;;;;;-142.59;100.00;56100.38;4915590;28;49786;-69
2022/01/16 06:49:36;;;;;;;;;45.25;36.00;;;;;-142.59;100.00;56100.38;4915863;28;49741;-67
2022/01/16 06:52:02;;;;;;;;;43.50;32.00;;;;;-142.59;100.00;56100.38;4915806;28;49830;-69
2022/01/16 06:54:28;;;;;;;;;32.00;28.50;;;;;-142.59;100.00;56100.38;4915741;28;50019;-70
2022/01/16 06:56:53;;;;;;;;;39.50;36.25;;;;;-142.59;100.00;56100.38;4915296;28;50942;-67
2022/01/16 06:59:18;;;;;;;;;26.50;26.00;;;;;-142.59;100.00;56100.38;4915524;28;49821;-65
2022/01/16 07:01:44;;;;;;;;;31.50;20.00;;;;;-142.59;100.00;56100.38;4915305;28;50437;-72
2022/01/16 07:04:09;;;;;;;;;26.50;19.25;;;;;-142.59;100.00;56100.38;4915622;28;49591;-67
2022/01/16 07:06:34;;;;;;;;;42.50;34.00;;;;;-142.59;100.00;56100.38;4915448;28;49965;-76
2022/01/16 07:09:00;;;;;;;;;34.00;28.25;;;;;-142.59;100.00;56100.38;4915466;28;50010;-73
2022/01/16 07:11:25;;;;;;;;;42.25;31.50;;;;;-142.59;100.00;56100.38;4915559;28;49895;-67
2022/01/16 07:13:51;;;;;;;;;40.75;33.75;;;;;-142.59;100.00;56100.38;4915633;28;49832;-65
2022/01/16 07:16:16;;;;;;;;;39.75;32.50;;;;;-142.59;100.00;56100.38;4897889;28;51335;-67
2022/01/16 07:18:41;;;;;;;;;43.50;33.50;;;;;-142.59;100.00;56100.38;4915322;28;49921;-73
2022/01/16 07:21:13;;;;;;;;;48.50;35.25;;;;;-142.59;100.00;56100.38;4898084;28;50208;-67
2022/01/16 07:23:43;;;;;;;;;35.00;26.75;;;;;-142.59;100.00;56100.38;4915407;28;49766;-68
2022/01/16 07:26:08;;;;;;;;;41.75;34.50;;;;;-142.59;100.00;56100.38;4915073;28;51550;-74
2022/01/16 07:28:34;;;;;;;;;26.75;21.00;;;;;-142.59;100.00;56100.38;4897817;28;49963;-69
2022/01/16 07:30:59;;;;;;;;;40.25;33.00;;;;;-142.59;100.00;56100.38;4915128;28;50436;-66
2022/01/16 07:33:24;;;;;;;;;37.75;30.75;;;;;-142.59;100.00;56100.38;4910558;28;49735;-66
2022/01/16 07:35:50;;;;;;;;;38.75;36.25;;;;;-142.59;100.00;56100.38;4919136;28;50579;-65
2022/01/16 07:38:15;;;;;;;;;45.50;31.50;;;;;-142.59;100.00;56100.38;4914701;28;49920;-65
2022/01/16 07:40:40;;;;;;;;;38.25;34.00;;;;;-142.59;100.00;56100.38;4913831;28;50082;-65
2022/01/16 07:43:06;;;;;;;;;33.50;31.25;;;;;-142.59;100.00;56100.38;4915021;28;49681;-65
2022/01/16 07:45:32;;;;;;;;;34.50;30.50;;;;;-142.59;100.00;56100.38;4914827;28;50550;-65
2022/01/16 07:47:57;;;;;;;;;34.50;32.75;;;;;-142.59;100.00;56100.38;4915082;28;49945;-65
2022/01/16 07:50:23;;;;;;;;;47.25;38.75;;;;;-142.59;100.00;56100.38;4914867;28;49599;-66
2022/01/16 07:52:49;;;;;;;;;43.00;34.75;;;;;-142.59;100.00;56100.38;4914815;28;49995;-65
2022/01/16 07:55:15;;;;;;;;;43.00;29.50;;;;;-142.59;100.00;56100.38;4914524;28;49729;-65
2022/01/16 07:57:40;;;;;;;;;40.00;33.75;;;;;-142.59;100.00;56100.38;4897069;28;49759;-65
2022/01/16 08:00:07;;;;;;;;;34.25;29.75;;;;;-142.59;100.00;56100.38;4914917;28;50501;-65
2022/01/16 08:02:32;;;;;;;;;35.50;26.50;;;;;-142.59;100.00;56100.38;4914550;28;49935;-67
2022/01/16 08:04:57;;;;;;;;;30.75;26.00;;;;;-142.59;100.00;56100.38;4914496;28;50742;-66
2022/01/16 08:07:23;;;;;;;;;38.00;35.50;;;;;-142.59;100.00;56100.38;4914513;28;49858;-66
2022/01/16 08:09:48;;;;;;;;;30.75;30.75;;;;;-142.59;100.00;56100.38;4914785;28;49793;-66
2022/01/16 08:12:14;;;;;;;;;24.25;20.75;;;;;-142.59;100.00;56100.38;4914522;28;50071;-66
2022/01/16 08:14:40;;;;;;;;;42.25;33.75;;;;;-142.59;100.00;56100.38;4914360;28;50673;-67
2022/01/16 08:17:05;;;;;;;;;34.75;30.75;;;;;-142.59;100.00;56100.38;4914407;28;50017;-67
2022/01/16 08:19:31;;;;;;;;;35.50;31.75;;;;;-142.59;100.00;56100.38;4914567;28;49786;-66
2022/01/16 08:21:57;;;;;;;;;35.00;33.25;;;;;-142.59;100.00;56100.38;4897279;28;49647;-66
2022/01/16 08:24:24;;;;;;;;;37.75;29.00;;;;;-142.59;100.00;56100.38;4896810;28;51197;-66
2022/01/16 08:26:49;;;;;;;;;42.25;35.25;;;;;-142.59;100.00;56100.38;4896818;28;49758;-68
2022/01/16 08:29:15;;;;;;;;;32.25;32.25;;;;;-142.59;100.00;56100.38;4914410;28;49718;-67
2022/01/16 08:31:40;;;;;;;;;35.25;32.50;;;;;-142.59;100.00;56100.38;4914423;28;49873;-68
2022/01/16 08:34:06;;;;;;;;;30.00;27.25;;;;;-142.59;100.00;56100.38;4914155;28;50424;-66
2022/01/16 08:36:31;;;;;;;;;38.25;30.50;;;;;-142.59;100.00;56100.38;4914144;28;49678;-66
2022/01/16 08:38:57;;;;;;;;;37.50;30.00;;;;;-142.59;100.00;56100.38;4914361;28;49797;-66
2022/01/16 08:41:24;;;;;;;;;43.00;28.25;;;;;-142.59;100.00;56100.38;4914261;28;50011;-65
2022/01/16 08:43:49;;;;;;;;;33.25;25.50;;;;;-142.59;100.00;56100.38;4913651;28;50904;-65
2022/01/16 08:46:15;;;;;;;;;41.25;29.25;;;;;-142.59;100.00;56100.38;4914159;28;49891;-68
2022/01/16 08:48:41;;;;;;;;;27.00;23.25;;;;;-142.59;100.00;56100.38;4913518;28;49927;-61
2022/01/16 08:51:06;;;;;;;;;36.00;31.75;;;;;-142.59;100.00;56100.38;4914104;28;49603;-61
2022/01/16 08:53:32;;;;;;;;;31.00;26.25;;;;;-142.59;100.00;56100.38;4913835;28;49927;-62
2022/01/16 08:55:59;;;;;;;;;33.00;31.00;;;;;-142.59;100.00;56100.38;4913711;28;50245;-72
2022/01/16 08:58:25;;;;;;;;;36.75;30.25;;;;;-142.59;100.00;56100.38;4913870;28;49566;-63
2022/01/16 09:00:50;;;;;;;;;36.25;34.00;;;;;-142.59;100.00;56100.38;4914302;28;49886;-67
2022/01/16 09:03:21;;;;;;;;;35.25;30.25;;;;;-142.59;100.00;56100.38;4912005;28;52388;-65
2022/01/16 09:05:47;;;;;;;;;32.50;26.25;;;;;-142.59;100.00;56100.38;4913804;28;49592;-64
2022/01/16 09:08:14;;;;;;;;;29.50;27.00;;;;;-142.59;100.00;56100.38;4913866;28;49769;-65
2022/01/16 09:10:41;;;;;;;;;30.75;24.50;;;;;-142.59;100.00;56100.38;4914590;28;49606;-63
2022/01/16 09:13:11;;;;;;;;;27.75;22.75;;;;;-142.59;100.00;56100.38;4913429;28;50683;-66
2022/01/16 09:15:37;;;;;;;;;33.00;28.00;;;;;-142.59;100.00;56100.38;4913604;28;49710;-65
2022/01/16 09:18:02;;;;;;;;;34.00;28.75;;;;;-142.59;100.00;56100.38;4896514;28;49879;-65
2022/01/16 09:20:28;;;;;;;;;34.50;29.00;;;;;-142.59;100.00;56100.38;4913730;28;50110;-64
2022/01/16 09:22:53;;;;;;;;;38.50;27.75;;;;;-142.59;100.00;56100.38;4913221;28;49899;-63
2022/01/16 09:25:20;;;;;;;;;39.25;31.25;;;;;-142.59;100.00;56100.38;4913390;28;49685;-71
2022/01/16 09:27:45;;;;;;;;;31.75;26.25;;;;;-142.59;100.00;56100.38;4913302;28;50060;-65
2022/01/16 09:30:12;;;;;;;;;36.25;29.25;;;;;-142.59;100.00;56100.38;4896262;28;50061;-65
2022/01/16 09:32:38;;;;;;;;;34.75;32.50;;;;;-142.59;100.00;56100.38;4913129;28;50000;-72
2022/01/16 09:35:05;;;;;;;;;33.50;26.75;;;;;-142.59;100.00;56100.38;4913250;28;49830;-73
2022/01/16 09:37:31;;;;;;;;;34.25;30.00;;;;;-142.59;100.00;56100.38;4895902;28;49864;-64
2022/01/16 09:39:58;;;;;;;;;33.75;26.75;;;;;-142.59;100.00;56100.38;4913378;28;50104;-63
2022/01/16 09:42:24;;;;;;;;;34.00;28.00;;;;;-142.59;100.00;56100.38;4912836;28;50874;-64
2022/01/16 09:44:50;;;;;;;;;32.50;28.25;;;;;-142.59;100.00;56100.38;4895995;28;50012;-64
2022/01/16 09:47:16;;;;;;;;;22.00;22.00;;;;;-142.59;100.00;56100.38;4913549;28;49883;-73
2022/01/16 09:49:41;;;;;;;;;35.75;31.00;;;;;-142.59;100.00;56100.38;4913338;28;49665;-70
2022/01/16 09:52:07;;;;;;;;;32.25;26.50;;;;;-142.59;100.00;56100.38;4908575;28;51273;-72
2022/01/16 09:54:33;;;;;;;;;28.75;28.00;;;;;-142.59;100.00;56100.38;4916645;28;49788;-64
2022/01/16 09:56:59;;;;;;;;;27.75;25.75;;;;;-142.59;100.00;56100.38;4913182;28;49777;-63
2022/01/16 09:59:24;;;;;;;;;32.75;28.00;;;;;-142.59;100.00;56100.38;4917619;28;49812;-65
2022/01/16 10:01:50;;;;;;;;;26.25;23.00;;;;;-142.59;100.00;56100.38;4912719;28;50299;-77
2022/01/16 10:04:29;;;;;;;;;25.75;25.25;;;;;-142.59;100.00;56100.38;4912864;28;49828;-62
2022/01/16 10:07:00;;;;;;;;;35.75;28.50;;;;;-142.59;100.00;56100.38;4907520;28;49795;-72
2022/01/16 10:09:25;;;;;;;;;30.00;24.25;;;;;-142.59;100.00;56100.38;4912824;28;49865;-79
2022/01/16 10:12:00;;;;;;;;;30.50;27.50;;;;;-142.59;100.00;56100.38;4911555;28;50027;-67
2022/01/16 10:14:36;;;;;;;;;32.00;29.50;;;;;-142.59;100.00;56100.38;4911189;28;49846;-71
2022/01/16 10:17:20;;;;;;;;;29.25;24.50;;;;;-142.59;100.00;56100.38;4894899;28;49965;-65
2022/01/16 10:19:56;;;;;;;;;31.50;27.50;;;;;-142.59;100.00;56100.38;4912663;28;49706;-64
2022/01/16 10:22:21;;;;;;;;;28.50;25.50;;;;;-142.59;100.00;56100.38;4895160;28;51647;-63
2022/01/16 10:24:51;;;;;;;;;26.75;23.25;;;;;-142.59;100.00;56100.38;4895675;28;49928;-64
2022/01/16 10:27:19;;;;;;;;;24.75;22.50;;;;;-142.59;100.00;56100.38;4912655;28;50066;-63
2022/01/16 10:29:52;;;;;;;;;27.75;21.25;;;;;-142.59;100.00;56100.38;4913002;28;49703;-72
2022/01/16 10:32:25;;;;;;;;;27.75;25.50;;;;;-142.59;100.00;56100.38;4914981;28;50212;-68
2022/01/16 10:34:53;;;;;;;;;11.25;11.25;;;;;-142.59;100.00;56100.38;4912662;28;49775;-64
2022/01/16 10:37:25;;;;;;;;;28.50;28.50;;;;;-142.59;100.00;56100.38;4912464;28;49829;-63
2022/01/16 10:40:04;;;;;;;;;29.25;24.50;;;;;-142.59;100.00;56100.38;4895413;28;49710;-63
2022/01/16 10:42:31;;;;;;;;;31.75;26.00;;;;;-142.59;100.00;56100.38;4912295;28;51221;-63
2022/01/16 10:45:15;;;;;;;;;30.75;22.50;;;;;-142.59;100.00;56100.38;4912508;28;49606;-63
2022/01/16 10:47:41;;;;;;;;;23.00;23.00;;;;;-142.59;100.00;56100.38;4910979;28;49872;-63
2022/01/16 10:50:14;;;;;;;;;29.00;24.25;;;;;-142.59;100.00;56100.38;4912851;28;49770;-61
2022/01/16 10:52:58;;;;;;;;;28.50;25.75;;;;;-142.59;100.00;56100.38;4912287;28;49850;-65
2022/01/16 10:55:44;;;;;;;;;25.50;21.75;;;;;-142.59;100.00;56100.38;4907699;28;49584;-63
2022/01/16 10:58:13;;;;;;;;;25.00;22.50;;;;;-142.59;100.00;56100.38;4911934;28;49789;-74
2022/01/16 11:00:43;;;;;;;;;28.25;24.50;;;;;-142.59;100.00;56100.38;4895566;28;49946;-66
2022/01/16 11:03:10;;;;;;;;;29.25;27.25;;;;;-142.59;100.00;56100.38;4911503;28;50751;-68
2022/01/16 11:05:43;;;;;;;;;26.25;21.25;;;;;-142.59;100.00;56100.38;4912837;28;50013;-64
2022/01/16 11:08:21;;;;;;;;;31.50;31.50;;;;;-142.59;100.00;56100.38;4912264;28;49815;-73
2022/01/16 11:10:48;;;;;;;;;26.25;26.25;;;;;-142.59;100.00;56100.38;4913716;28;49630;-67
2022/01/16 11:13:17;;;;;;;;;27.75;27.75;;;;;-142.59;100.00;56100.38;4897867;28;51997;-65
2022/01/16 11:15:48;;;;;;;;;23.25;21.50;;;;;-142.59;100.00;56100.38;4909184;28;49795;-66
2022/01/16 11:18:15;;;;;;;;;33.25;30.50;;;;;-142.59;100.00;56100.38;4915493;28;49645;-66
2022/01/16 11:20:51;;;;;;;;;30.75;26.50;;;;;-142.59;100.00;56100.38;4915506;28;50004;-64
2022/01/16 11:25:56;;;;;;;;;24.00;22.25;;;;;-142.59;100.00;56100.38;4915199;28;49777;-71
2022/01/16 11:28:23;;;;;;;;;26.00;21.25;;;;;-142.59;100.00;56100.38;4897604;28;50150;-70
2022/01/16 11:30:55;;;;;;;;;27.75;23.75;;;;;-142.59;100.00;56100.38;4897941;28;49968;-69
2022/01/16 11:33:23;;;;;;;;;25.00;23.75;;;;;-142.59;100.00;56100.38;4897700;28;51811;-67
2022/01/16 11:36:01;;;;;;;;;23.25;23.25;;;;;-142.59;100.00;56100.38;4914422;28;49667;-69
2022/01/16 11:38:31;;;;;;;;;27.75;23.50;;;;;-142.59;100.00;56100.38;4897715;28;49884;-69